Time;durP1;ratioP1;P1;durP2;ratioP2;P2;SDS_P1;SDS_P2;PMS_P1;PMS_P2;Temp;Humidity;BMP_temperature;BMP_pressure;BME280_temperature;BME280_humidity;BME280_pressure;Samples;Min_cycle;Max_cycle;Signal;HPM_P1;HPM_P2
2022/01/31 00:00:30;;;;;;;7.07;2.97;;;;;;;9.34;83.87;100974.69;5040385;28;20050;-79
2022/01/31 00:02:58;;;;;;;7.00;3.20;;;;;;;9.40;83.76;100976.56;5032027;28;20042;-78
2022/01/31 00:05:26;;;;;;;13.27;2.78;;;;;;;9.45;84.02;100975.81;5050661;28;20042;-79
2022/01/31 00:07:54;;;;;;;8.40;2.58;;;;;;;9.51;84.06;100969.84;5048536;28;20040;-78
2022/01/31 00:10:28;;;;;;;7.47;2.70;;;;;;;9.53;84.11;100976.00;5050423;28;20145;-78
2022/01/31 00:13:03;;;;;;;9.30;3.88;;;;;;;9.58;84.13;100977.88;5065884;28;20132;-78
2022/01/31 00:15:39;;;;;;;8.38;4.70;;;;;;;9.61;84.22;100971.81;5034164;28;20068;-78
2022/01/31 00:18:08;;;;;;;3.80;2.15;;;;;;;9.67;84.38;100971.94;5031096;28;20128;-79
2022/01/31 00:20:37;;;;;;;7.15;2.20;;;;;;;9.69;84.12;100966.72;5040603;28;20095;-79
2022/01/31 00:23:05;;;;;;;5.22;1.50;;;;;;;9.65;84.07;100968.38;5051747;28;20544;-79
2022/01/31 00:25:33;;;;;;;5.22;1.17;;;;;;;9.59;83.89;100962.97;5050560;28;20045;-79
2022/01/31 00:28:01;;;;;;;4.43;1.33;;;;;;;9.46;84.23;100956.53;5047164;28;20045;-79
2022/01/31 00:30:28;;;;;;;5.03;1.33;;;;;;;9.46;84.12;100953.00;5030089;28;20486;-78
2022/01/31 00:32:56;;;;;;;2.40;1.15;;;;;;;9.47;83.87;100957.41;5043851;28;20048;-78
2022/01/31 00:35:26;;;;;;;5.55;2.50;;;;;;;9.50;84.19;100966.31;5049537;28;20114;-79
2022/01/31 00:37:53;;;;;;;5.80;2.50;;;;;;;9.38;83.87;100975.66;5047882;28;20041;-78
2022/01/31 00:40:21;;;;;;;5.13;1.45;;;;;;;9.19;84.14;100984.84;5047248;28;20045;-77
2022/01/31 00:42:49;;;;;;;9.32;5.85;;;;;;;9.00;84.40;100994.03;5049579;28;20142;-77
2022/01/31 00:45:23;;;;;;;11.60;5.18;;;;;;;8.95;85.39;100992.13;5048400;28;20037;-76
2022/01/31 00:48:00;;;;;;;5.78;2.28;;;;;;;9.09;85.67;100980.22;5047259;28;20124;-78
2022/01/31 00:50:36;;;;;;;8.82;4.40;;;;;;;9.23;85.57;100973.53;5034904;28;20050;-76
2022/01/31 00:53:05;;;;;;;6.10;2.40;;;;;;;9.24;85.69;100970.06;5029315;28;20064;-77
2022/01/31 00:55:32;;;;;;;2.22;1.42;;;;;;;9.25;86.00;100960.44;5029601;28;20041;-77
2022/01/31 00:58:00;;;;;;;4.13;1.33;;;;;;;9.30;86.79;100962.31;5045740;28;20049;-77
2022/01/31 01:00:27;;;;;;;6.57;1.42;;;;;;;9.40;87.04;100960.75;5031947;28;20754;-77
2022/01/31 01:02:55;;;;;;;4.32;1.30;;;;;;;9.49;87.16;100961.00;5030618;28;20041;-77
2022/01/31 01:05:24;;;;;;;5.13;1.13;;;;;;;9.56;87.54;100955.00;5048178;28;20068;-77
2022/01/31 01:07:54;;;;;;;14.85;9.13;;;;;;;9.59;87.94;100963.84;5048085;28;20037;-76
2022/01/31 01:10:22;;;;;;;15.95;9.75;;;;;;;9.60;87.95;100964.75;5048182;28;20103;-76
2022/01/31 01:12:49;;;;;;;18.40;8.65;;;;;;;9.71;88.39;100950.09;5046365;28;20056;-75
2022/01/31 01:15:20;;;;;;;99.25;46.33;;;;;;;9.88;88.73;100955.72;5045684;28;20045;-77
2022/01/31 01:17:48;;;;;;;16.42;8.65;;;;;;;9.99;88.97;100944.53;5043487;28;20270;-77
2022/01/31 01:20:16;;;;;;;18.05;11.50;;;;;;;10.16;89.17;100941.34;5027745;28;20045;-77
2022/01/31 01:22:46;;;;;;;68.07;39.65;;;;;;;10.25;89.52;100945.06;5034891;28;20037;-77
2022/01/31 01:25:16;;;;;;;39.67;22.52;;;;;;;10.36;89.82;100937.41;5051868;28;20045;-76
2022/01/31 01:27:47;;;;;;;16.88;9.27;;;;;;;10.47;90.15;100932.31;5063539;28;20052;-77
2022/01/31 01:30:15;;;;;;;20.63;9.23;;;;;;;10.54;90.23;100932.44;5046759;28;20393;-77
2022/01/31 01:32:58;;;;;;;19.75;8.98;;;;;;;10.61;90.75;100917.63;5047055;28;20033;-77
2022/01/31 01:35:31;;;;;;;18.75;8.20;;;;;;;10.65;90.86;100922.97;5047596;28;20514;-77
2022/01/31 01:38:04;;;;;;;21.08;9.82;;;;;;;10.70;91.17;100929.22;5030759;28;20663;-78
2022/01/31 01:40:34;;;;;;;17.17;9.07;;;;;;;10.75;91.69;100926.66;5046110;28;20049;-78
2022/01/31 01:43:02;;;;;;;23.17;12.20;;;;;;;10.79;91.43;100936.41;5037834;28;20448;-77
2022/01/31 01:45:30;;;;;;;22.08;11.75;;;;;;;10.83;91.86;100935.59;5033373;28;20053;-78
2022/01/31 01:47:58;;;;;;;20.42;11.15;;;;;;;10.86;91.87;100934.75;5057232;28;20041;-78
2022/01/31 01:50:26;;;;;;;21.85;7.75;;;;;;;10.88;92.22;100940.97;5031643;28;20396;-79
2022/01/31 01:52:54;;;;;;;15.10;8.48;;;;;;;10.87;92.47;100934.78;5048229;28;20087;-79
2022/01/31 01:55:22;;;;;;;18.55;9.38;;;;;;;10.90;92.30;100940.13;5048331;28;20048;-78
2022/01/31 01:57:52;;;;;;;17.83;8.43;;;;;;;10.91;92.61;100941.91;5034905;28;20041;-78
2022/01/31 02:00:25;;;;;;;17.30;7.57;;;;;;;10.91;92.99;100941.91;5059432;28;20108;-78
2022/01/31 02:02:53;;;;;;;19.65;8.95;;;;;;;10.92;92.82;100935.75;5038962;28;20049;-77
2022/01/31 02:05:22;;;;;;;17.85;8.48;;;;;;;10.92;92.87;100938.41;5047204;28;20386;-78
2022/01/31 02:07:51;;;;;;;17.48;8.90;;;;;;;10.93;93.01;100940.19;5047157;28;20055;-77
2022/01/31 02:10:20;;;;;;;15.77;8.52;;;;;;;10.95;93.00;100938.47;5034968;28;20049;-78
2022/01/31 02:13:15;;;;;;;13.93;7.68;;;;;;;10.96;93.02;100932.28;5044303;28;20044;-78
2022/01/31 02:16:12;;;;;;;14.32;7.30;;;;;;;10.98;93.08;100930.56;5026537;28;20052;-78
2022/01/31 02:18:51;;;;;;;14.07;6.78;;;;;;;11.03;93.07;100935.91;5028005;28;20127;-79
2022/01/31 02:21:45;;;;;;;12.98;7.10;;;;;;;11.06;93.10;100936.00;5011635;28;20122;-78
2022/01/31 02:24:32;;;;;;;19.40;9.25;;;;;;;11.07;93.02;100943.94;5036329;28;20041;-78
2022/01/31 02:27:27;;;;;;;;;;;;;;;11.06;92.62;100942.16;5010015;28;20618;-77
2022/01/31 02:29:56;;;;;;;14.45;6.93;;;;;;;11.09;92.82;100942.19;5027065;28;19921;-77
2022/01/31 02:32:25;;;;;;;11.98;6.30;;;;;;;11.08;92.91;100939.56;5027675;28;20437;-78
2022/01/31 02:34:57;;;;;;;11.38;6.53;;;;;;;11.08;92.79;100945.72;5043877;28;20504;-77
2022/01/31 02:37:27;;;;;;;11.38;6.57;;;;;;;11.11;92.40;100940.47;5037480;28;20135;-77
2022/01/31 02:40:01;;;;;;;12.77;6.35;;;;;;;11.10;92.30;100938.69;5041128;28;20115;-77
2022/01/31 02:42:28;;;;;;;13.52;6.60;;;;;;;11.12;92.35;100933.44;5040911;28;20053;-77
2022/01/31 02:44:56;;;;;;;14.95;6.50;;;;;;;11.14;92.38;100932.63;5056839;28;20065;-78
2022/01/31 02:47:27;;;;;;;12.52;6.70;;;;;;;11.14;92.10;100924.69;5045114;28;20055;-78
2022/01/31 02:49:59;;;;;;;12.60;5.30;;;;;;;11.16;92.01;100935.25;5043617;28;20100;-78
2022/01/31 02:52:31;;;;;;;12.00;5.15;;;;;;;11.18;91.58;100925.59;5043769;28;20053;-78
2022/01/31 02:55:00;;;;;;;8.52;4.38;;;;;;;11.16;91.94;100928.22;5043948;28;20092;-78
2022/01/31 02:57:28;;;;;;;13.13;5.45;;;;;;;11.17;91.71;100923.81;5051872;28;20052;-78
2022/01/31 02:59:56;;;;;;;10.82;4.82;;;;;;;11.18;91.47;100925.59;5023352;28;20088;-77
2022/01/31 03:02:27;;;;;;;10.48;4.65;;;;;;;11.16;91.55;100932.63;5030544;28;20103;-78
2022/01/31 03:04:55;;;;;;;11.43;5.57;;;;;;;11.17;91.30;100930.00;5013846;28;20066;-78
2022/01/31 03:07:22;;;;;;;10.80;5.35;;;;;;;11.14;91.18;100922.03;5024540;28;20053;-77
2022/01/31 03:09:52;;;;;;;9.63;5.45;;;;;;;11.14;90.92;100931.72;5027940;28;20132;-78
2022/01/31 03:12:26;;;;;;;13.35;5.68;;;;;;;11.11;90.86;100927.28;5016030;28;20065;-78
2022/01/31 03:15:03;;;;;;;12.48;5.63;;;;;;;11.08;90.63;100924.59;5016072;28;20040;-78
2022/01/31 03:17:50;;;;;;;10.25;5.68;;;;;;;11.06;90.54;100923.66;5026973;28;20054;-78
2022/01/31 03:20:21;;;;;;;12.20;5.32;;;;;;;11.06;90.37;100934.25;5029123;28;20065;-78
2022/01/31 03:22:49;;;;;;;10.48;5.50;;;;;;;11.08;90.02;100931.63;5031683;28;20041;-78
2022/01/31 03:25:19;;;;;;;8.52;5.15;;;;;;;11.06;89.72;100936.88;5031421;28;20543;-78
2022/01/31 03:27:49;;;;;;;9.80;5.35;;;;;;;11.05;89.39;100924.53;5047115;28;20099;-78
2022/01/31 03:30:19;;;;;;;10.13;6.03;;;;;;;11.07;89.05;100938.66;5010992;28;20068;-78
2022/01/31 03:32:48;;;;;;;9.80;5.38;;;;;;;11.09;89.12;100930.78;5040204;28;20069;-78
2022/01/31 03:35:16;;;;;;;10.80;5.90;;;;;;;11.13;88.91;100936.13;5045211;28;20041;-78
2022/01/31 03:37:44;;;;;;;12.80;5.80;;;;;;;11.15;88.68;100937.03;5051011;28;20045;-78
2022/01/31 03:40:15;;;;;;;10.13;5.50;;;;;;;11.18;88.60;100939.72;5066854;28;20041;-78
2022/01/31 03:42:44;;;;;;;13.23;7.53;;;;;;;11.23;88.35;100937.13;5050661;28;20099;-77
2022/01/31 03:45:13;;;;;;;12.30;6.47;;;;;;;11.23;88.36;100933.59;5048004;28;20059;-78
2022/01/31 03:47:46;;;;;;;10.45;5.90;;;;;;;11.23;88.09;100938.88;5048584;28;20048;-78
2022/01/31 03:50:17;;;;;;;12.10;7.25;;;;;;;11.22;87.71;100942.41;5050150;28;20041;-78
2022/01/31 03:52:52;;;;;;;10.90;5.47;;;;;;;11.20;87.55;100942.38;5050405;28;20037;-78
2022/01/31 03:55:21;;;;;;;12.40;5.82;;;;;;;11.20;87.59;100934.47;5041196;28;20053;-78
2022/01/31 03:57:54;;;;;;;12.52;5.63;;;;;;;11.21;87.20;100951.22;5011728;28;20453;-78
2022/01/31 04:00:25;;;;;;;9.63;5.70;;;;;;;11.24;87.33;100957.41;5041305;28;20192;-79
2022/01/31 04:02:52;;;;;;;15.82;6.22;;;;;;;11.27;87.37;100954.84;5034105;28;20501;-78
2022/01/31 04:05:20;;;;;;;11.60;6.40;;;;;;;11.29;87.37;100955.72;5031847;28;20059;-78
2022/01/31 04:07:47;;;;;;;11.13;5.95;;;;;;;11.28;87.22;100956.63;5043806;28;20041;-78
2022/01/31 04:10:15;;;;;;;7.57;5.05;;;;;;;11.30;86.67;100960.16;5022454;28;20042;-78
2022/01/31 04:12:42;;;;;;;10.25;5.65;;;;;;;11.31;86.41;100963.69;5018226;28;20041;-78
2022/01/31 04:15:11;;;;;;;10.52;5.53;;;;;;;11.29;86.31;100966.28;5022838;28;20046;-77
2022/01/31 04:17:40;;;;;;;10.88;5.88;;;;;;;11.28;86.19;100972.47;5012168;28;20042;-78
2022/01/31 04:20:09;;;;;;;14.07;5.78;;;;;;;11.30;86.12;100970.72;5014217;28;20045;-78
2022/01/31 04:22:41;;;;;;;12.88;6.38;;;;;;;11.30;85.91;100957.50;5012848;28;20046;-78
2022/01/31 04:25:27;;;;;;;13.68;6.68;;;;;;;11.33;85.81;100972.53;5024357;28;20084;-79
2022/01/31 04:28:01;;;;;;;12.60;6.15;;;;;;;11.33;85.55;100972.53;5030641;28;20171;-78
2022/01/31 04:30:31;;;;;;;15.55;5.93;;;;;;;11.34;85.52;100974.31;5030214;28;20076;-79
2022/01/31 04:32:59;;;;;;;10.65;5.80;;;;;;;11.33;84.86;100972.53;5018443;28;20042;-78
2022/01/31 04:35:26;;;;;;;11.45;5.40;;;;;;;11.34;84.74;100974.31;5031371;28;20048;-78
2022/01/31 04:37:54;;;;;;;11.95;6.05;;;;;;;11.32;84.64;100973.41;5031402;28;20046;-78
2022/01/31 04:40:22;;;;;;;10.27;5.07;;;;;;;11.32;84.56;100970.75;5031680;28;20115;-77
2022/01/31 04:42:51;;;;;;;8.88;4.72;;;;;;;11.28;84.04;100969.84;5044938;28;20053;-79
2022/01/31 04:45:19;;;;;;;14.52;5.45;;;;;;;11.28;83.50;100975.13;5018031;28;20453;-79
2022/01/31 04:47:48;;;;;;;10.48;5.00;;;;;;;11.28;83.07;100968.94;5041690;28;20122;-78
2022/01/31 04:50:15;;;;;;;10.27;5.25;;;;;;;11.24;83.02;100969.72;5033619;28;20103;-78
2022/01/31 04:52:43;;;;;;;13.38;5.75;;;;;;;11.25;82.58;100984.72;5034064;28;20037;-78
2022/01/31 04:55:11;;;;;;;7.68;4.75;;;;;;;11.26;82.76;100984.75;5030868;28;20064;-78
2022/01/31 04:57:39;;;;;;;11.82;5.95;;;;;;;11.25;82.85;100985.63;5030873;28;20509;-78
2022/01/31 05:00:10;;;;;;;9.32;5.50;;;;;;;11.22;82.79;100985.59;5030231;28;20045;-77
2022/01/31 05:02:38;;;;;;;14.50;6.35;;;;;;;11.22;82.50;100976.78;5030853;28;20049;-78
2022/01/31 05:05:08;;;;;;;10.45;5.00;;;;;;;11.26;82.26;100986.50;5025883;28;20038;-79
2022/01/31 05:07:36;;;;;;;9.90;5.32;;;;;;;11.30;82.01;100993.63;5027616;28;20042;-79
2022/01/31 05:10:04;;;;;;;8.95;5.00;;;;;;;11.34;81.98;100982.25;5011198;28;20130;-78
2022/01/31 05:12:31;;;;;;;13.30;6.22;;;;;;;11.37;81.62;100993.75;5010774;28;20123;-78
2022/01/31 05:14:59;;;;;;;11.25;5.43;;;;;;;11.42;81.83;100985.91;5012634;28;20040;-78
2022/01/31 05:17:26;;;;;;;8.10;5.38;;;;;;;11.44;81.67;100994.72;5023972;28;20088;-78
2022/01/31 05:19:54;;;;;;;10.75;5.90;;;;;;;11.43;82.14;101009.69;5044303;28;20045;-78
2022/01/31 05:22:23;;;;;;;13.93;6.30;;;;;;;11.18;82.77;101000.50;5045553;28;20137;-78
2022/01/31 05:24:51;;;;;;;12.35;6.05;;;;;;;11.03;83.74;101010.78;5046109;28;20443;-77
2022/01/31 05:27:19;;;;;;;14.65;7.00;;;;;;;10.93;84.00;101014.13;5044749;28;20045;-76
2022/01/31 05:29:47;;;;;;;11.32;7.13;;;;;;;10.87;84.46;101023.69;5035433;28;20044;-75
2022/01/31 05:32:14;;;;;;;12.75;6.55;;;;;;;10.73;84.98;101000.56;5033575;28;20523;-76
2022/01/31 05:34:41;;;;;;;13.13;7.38;;;;;;;10.69;85.59;101014.59;5036500;28;20049;-77
2022/01/31 05:37:09;;;;;;;14.05;7.80;;;;;;;10.72;85.89;101016.38;5030050;28;20516;-77
2022/01/31 05:39:39;;;;;;;12.32;7.10;;;;;;;10.68;86.26;101010.16;5037724;28;20037;-76
2022/01/31 05:42:07;;;;;;;14.23;6.82;;;;;;;10.67;86.49;101016.28;5048740;28;20037;-77
2022/01/31 05:44:35;;;;;;;12.90;6.72;;;;;;;10.66;86.63;101024.19;5040900;28;20041;-77
2022/01/31 05:47:03;;;;;;;16.67;7.60;;;;;;;10.67;86.80;101020.69;5031192;28;20099;-77
2022/01/31 05:49:30;;;;;;;10.98;7.18;;;;;;;10.69;86.95;101017.22;5039807;28;20045;-78
2022/01/31 05:52:02;;;;;;;13.27;7.13;;;;;;;10.74;86.93;101030.50;5049324;28;20051;-76
2022/01/31 05:54:30;;;;;;;12.60;7.57;;;;;;;10.80;86.99;101030.63;5045430;28;20091;-78
2022/01/31 05:57:00;;;;;;;19.20;10.07;;;;;;;10.86;87.01;101035.13;5040968;28;20052;-76
2022/01/31 05:59:28;;;;;;;14.80;8.70;;;;;;;10.86;87.02;101032.47;5029709;28;20508;-76
2022/01/31 06:01:57;;;;;;;17.50;8.50;;;;;;;10.88;86.79;101036.94;5042834;28;20459;-76
2022/01/31 06:04:25;;;;;;;20.08;12.43;;;;;;;10.90;86.87;101037.84;5036803;28;20122;-78
2022/01/31 06:06:53;;;;;;;18.00;12.98;;;;;;;10.94;86.88;101034.41;5022505;28;20124;-77
2022/01/31 06:09:21;;;;;;;19.15;13.98;;;;;;;10.97;87.06;101045.00;5043963;28;20132;-77
2022/01/31 06:11:49;;;;;;;18.17;12.93;;;;;;;11.01;87.11;101043.34;5029868;28;20037;-77
2022/01/31 06:14:21;;;;;;;25.83;19.40;;;;;;;11.06;87.06;101047.84;5008504;28;20053;-77
2022/01/31 06:16:49;;;;;;;17.80;10.27;;;;;;;11.10;87.20;101051.41;5043509;28;20049;-76
2022/01/31 06:19:16;;;;;;;11.98;7.95;;;;;;;11.09;86.89;101047.88;5026967;28;20037;-77
2022/01/31 06:21:44;;;;;;;16.83;9.70;;;;;;;11.09;86.63;101052.28;5027905;28;20048;-77
2022/01/31 06:24:13;;;;;;;22.90;16.58;;;;;;;11.09;86.33;101057.56;5020385;28;20045;-76
2022/01/31 06:26:41;;;;;;;23.15;17.58;;;;;;;11.08;85.95;101061.06;5022094;28;20535;-77
2022/01/31 06:29:21;;;;;;;19.38;14.15;;;;;;;11.11;85.53;101069.94;5025307;28;20049;-77
2022/01/31 06:31:54;;;;;;;35.03;26.98;;;;;;;11.11;84.97;101067.28;5043152;28;20081;-77
2022/01/31 06:34:22;;;;;;;28.98;17.00;;;;;;;11.16;84.71;101072.66;5024170;28;20046;-76
2022/01/31 06:36:50;;;;;;;24.02;17.25;;;;;;;11.22;84.76;101066.63;5018376;28;20493;-77
2022/01/31 06:39:18;;;;;;;19.35;14.07;;;;;;;11.28;84.44;101072.00;5030016;28;20060;-77
2022/01/31 06:41:45;;;;;;;24.10;17.10;;;;;;;11.30;83.31;101076.44;5043891;28;20041;-77
2022/01/31 06:44:13;;;;;;;20.02;15.05;;;;;;;11.29;83.06;101077.28;5014231;28;20034;-77
2022/01/31 06:46:42;;;;;;;10.25;6.68;;;;;;;11.29;82.25;101082.56;5020026;28;22506;-77
2022/01/31 06:49:10;;;;;;;26.75;18.00;;;;;;;11.34;82.40;101080.03;5049678;28;20037;-77
2022/01/31 06:51:37;;;;;;;17.25;11.10;;;;;;;11.39;82.59;101095.09;5034080;28;20052;-77
2022/01/31 06:54:06;;;;;;;13.95;7.43;;;;;;;11.46;82.10;101080.25;5044061;28;20552;-77
2022/01/31 06:56:38;;;;;;;19.83;13.30;;;;;;;11.49;82.00;101094.38;5036714;28;20866;-78
2022/01/31 06:59:06;;;;;;;13.43;7.68;;;;;;;11.55;81.83;101091.84;5043228;28;20055;-78
2022/01/31 07:01:34;;;;;;;13.45;6.88;;;;;;;11.57;81.48;101089.22;5029243;28;20049;-78
2022/01/31 07:04:03;;;;;;;42.45;19.70;;;;;;;11.58;81.03;101093.66;5045023;28;20041;-78
2022/01/31 07:06:30;;;;;;;32.58;21.45;;;;;;;11.58;81.37;101102.50;5029367;28;20064;-78
2022/01/31 07:08:59;;;;;;;25.70;16.63;;;;;;;11.59;81.45;101112.22;5046623;28;20037;-78
2022/01/31 07:11:31;;;;;;;22.65;15.25;;;;;;;11.57;80.84;101113.91;5049122;28;20053;-79
2022/01/31 07:14:04;;;;;;;16.25;10.95;;;;;;;11.54;80.46;101113.88;5051320;28;20445;-78
2022/01/31 07:16:32;;;;;;;12.63;6.13;;;;;;;11.52;80.41;101106.78;5064999;28;20056;-78
2022/01/31 07:19:05;;;;;;;12.13;5.97;;;;;;;11.46;79.66;101110.22;5049371;28;20108;-79
2022/01/31 07:21:39;;;;;;;13.25;6.10;;;;;;;11.46;79.65;101115.50;5051211;28;20098;-78
2022/01/31 07:24:20;;;;;;;101.35;28.38;;;;;;;11.46;79.45;101119.91;5050699;28;20397;-78
2022/01/31 07:26:48;;;;;;;13.35;8.55;;;;;;;11.78;79.20;101110.78;5065852;28;20547;-77
2022/01/31 07:29:16;;;;;;;14.27;7.95;;;;;;;12.15;78.89;101114.88;5047323;28;20053;-78
2022/01/31 07:31:45;;;;;;;7.70;5.97;;;;;;;12.57;79.49;101105.75;5050234;28;20124;-77
2022/01/31 07:34:14;;;;;;;7.63;6.80;;;;;;;12.88;78.90;101101.72;5040809;28;20494;-78
2022/01/31 07:36:43;;;;;;;9.52;4.85;;;;;;;13.02;77.76;101100.13;5038393;28;20056;-78
2022/01/31 07:39:11;;;;;;;10.27;5.80;;;;;;;12.98;77.57;101109.81;5055333;28;20136;-78
2022/01/31 07:41:39;;;;;;;21.25;5.50;;;;;;;12.99;78.15;101111.59;5047378;28;20041;-76
2022/01/31 07:44:07;;;;;;;7.63;5.07;;;;;;;12.75;77.92;101114.81;5051690;28;20045;-77
2022/01/31 07:46:35;;;;;;;7.70;5.30;;;;;;;12.57;77.34;101125.19;5051722;28;20041;-77
2022/01/31 07:49:05;;;;;;;7.78;4.75;;;;;;;12.47;77.27;101127.72;5049555;28;20037;-78
2022/01/31 07:51:34;;;;;;;9.85;5.68;;;;;;;12.41;76.87;101123.19;5049615;28;20386;-77
2022/01/31 07:54:19;;;;;;;14.48;7.63;;;;;;;12.32;76.44;101123.97;5030475;28;20501;-77
2022/01/31 07:56:47;;;;;;;9.93;5.07;;;;;;;12.27;76.50;101128.28;5028154;28;20041;-77
2022/01/31 07:59:14;;;;;;;10.32;4.55;;;;;;;12.24;76.18;101132.66;5063227;28;20125;-77
2022/01/31 08:01:42;;;;;;;10.70;6.80;;;;;;;12.23;75.79;101137.06;5030306;28;20123;-78
2022/01/31 08:04:10;;;;;;;9.13;4.47;;;;;;;12.19;75.06;101139.66;5044379;28;20100;-77
2022/01/31 08:06:38;;;;;;;12.45;5.10;;;;;;;12.19;75.20;101142.28;5042795;28;20045;-78
2022/01/31 08:09:05;;;;;;;6.45;4.18;;;;;;;12.23;75.60;101144.09;5045392;28;20045;-77
2022/01/31 08:11:35;;;;;;;8.20;5.15;;;;;;;12.37;74.87;101153.16;5040245;28;20045;-77
2022/01/31 08:14:08;;;;;;;8.80;4.50;;;;;;;12.78;75.42;101144.00;5026518;28;20409;-77
2022/01/31 08:16:36;;;;;;;8.32;4.53;;;;;;;13.32;75.40;101144.69;5041748;28;20049;-77
2022/01/31 08:19:07;;;;;;;9.70;5.07;;;;;;;13.55;75.31;101146.66;5022150;28;20053;-78
2022/01/31 08:21:36;;;;;;;5.40;3.28;;;;;;;13.89;75.14;101152.28;5064747;28;20037;-78
2022/01/31 08:24:05;;;;;;;5.45;3.15;;;;;;;14.27;74.88;101156.09;5031615;28;20468;-77
2022/01/31 08:26:34;;;;;;;6.35;4.38;;;;;;;14.62;74.83;101155.47;5027239;28;20050;-78
2022/01/31 08:29:06;;;;;;;15.68;4.40;;;;;;;14.70;75.26;101157.28;5026277;28;20128;-78
2022/01/31 08:31:36;;;;;;;9.43;5.22;;;;;;;14.53;74.52;101148.34;5017509;28;20046;-77
2022/01/31 08:34:19;;;;;;;10.57;3.97;;;;;;;14.27;73.23;101150.78;5039954;28;20649;-79
2022/01/31 08:36:47;;;;;;;9.38;4.25;;;;;;;13.98;72.96;101162.09;5032193;28;20049;-79
2022/01/31 08:39:18;;;;;;;8.15;4.07;;;;;;;13.84;72.13;101159.31;5027807;28;20124;-80
2022/01/31 08:41:50;;;;;;;9.02;4.05;;;;;;;13.76;70.96;101150.41;5029739;28;20132;-78
2022/01/31 08:44:20;;;;;;;9.40;2.70;;;;;;;13.68;70.60;101157.41;5029335;28;20037;-78
2022/01/31 08:46:48;;;;;;;14.25;5.70;;;;;;;13.51;70.56;101159.91;5029054;28;20053;-79
2022/01/31 08:49:17;;;;;;;15.13;7.20;;;;;;;13.41;70.61;101163.31;5046477;28;20065;-78
2022/01/31 08:51:46;;;;;;;12.65;6.95;;;;;;;13.81;71.39;101153.97;5047846;28;20099;-78
2022/01/31 08:54:15;;;;;;;9.77;6.13;;;;;;;14.26;70.78;101154.31;5021136;28;20042;-80
2022/01/31 08:56:45;;;;;;;6.80;3.83;;;;;;;14.65;71.14;101160.78;5027691;28;20038;-80
2022/01/31 08:59:18;;;;;;;11.13;4.32;;;;;;;14.61;70.34;101156.34;5028836;28;20405;-79
2022/01/31 09:01:52;;;;;;;7.85;3.72;;;;;;;14.43;69.72;101161.56;5031046;28;20192;-81
2022/01/31 09:04:33;;;;;;;6.60;3.42;;;;;;;14.19;69.64;101152.50;5037508;28;20049;-81
2022/01/31 09:07:00;;;;;;;8.00;3.97;;;;;;;14.06;69.37;101155.06;5032205;28;20048;-79
2022/01/31 09:09:30;;;;;;;7.03;3.75;;;;;;;14.07;68.35;101146.22;5032781;28;20096;-80
2022/01/31 09:12:02;;;;;;;5.90;4.53;;;;;;;14.02;67.47;101145.31;5031332;28;20034;-81
2022/01/31 09:14:31;;;;;;;9.45;3.42;;;;;;;13.96;66.69;101148.81;5020719;28;20042;-81
2022/01/31 09:16:59;;;;;;;8.88;4.70;;;;;;;13.96;67.28;101151.47;5022218;28;20046;-79
2022/01/31 09:19:26;;;;;;;5.78;3.60;;;;;;;13.87;67.10;101159.31;5030236;28;20045;-78
2022/01/31 09:21:54;;;;;;;7.20;4.55;;;;;;;13.69;66.83;101156.53;5027558;28;20091;-78
2022/01/31 09:24:24;;;;;;;6.10;3.70;;;;;;;13.61;66.67;101155.56;5026580;28;20053;-78
2022/01/31 09:26:52;;;;;;;7.68;4.05;;;;;;;13.54;66.63;101157.25;5038583;28;20140;-78
2022/01/31 09:29:20;;;;;;;7.88;4.38;;;;;;;13.61;66.45;101156.44;5045212;28;20046;-79
2022/01/31 09:31:48;;;;;;;6.53;4.38;;;;;;;13.93;66.96;101140.81;5025354;28;20045;-81
2022/01/31 09:34:16;;;;;;;5.80;3.45;;;;;;;14.08;66.89;101140.03;5043969;28;20634;-81
2022/01/31 09:36:44;;;;;;;6.80;3.67;;;;;;;14.34;67.39;101141.09;5049602;28;20041;-79
2022/01/31 09:39:11;;;;;;;8.68;3.58;;;;;;;14.46;66.85;101141.22;5048608;28;20052;-80
2022/01/31 09:41:41;;;;;;;5.32;2.88;;;;;;;14.79;67.14;101150.22;5050694;28;20163;-80
2022/01/31 09:44:24;;;;;;;5.28;2.97;;;;;;;15.11;67.29;101146.81;5049561;28;20044;-80
2022/01/31 09:47:05;;;;;;;3.22;2.20;;;;;;;15.43;67.19;101140.69;5050401;28;20065;-80
2022/01/31 09:49:33;;;;;;;5.32;3.20;;;;;;;15.67;68.03;101126.56;5051093;28;20052;-81
2022/01/31 09:52:01;;;;;;;7.07;2.67;;;;;;;15.92;68.33;101126.56;5046631;28;20047;-81
2022/01/31 09:54:29;;;;;;;5.15;2.70;;;;;;;15.86;68.44;101129.25;5048598;28;20051;-81
2022/01/31 09:56:58;;;;;;;4.47;2.90;;;;;;;15.52;67.58;101130.06;5046449;28;20425;-79
2022/01/31 09:59:26;;;;;;;5.78;2.78;;;;;;;15.42;66.67;101126.53;5031687;28;20072;-80
2022/01/31 10:01:57;;;;;;;6.40;3.05;;;;;;;15.66;66.71;101124.78;5050264;28;20091;-80
2022/01/31 10:04:30;;;;;;;7.28;3.70;;;;;;;15.95;66.37;101123.88;5033261;28;20040;-81
2022/01/31 10:06:59;;;;;;;6.18;3.03;;;;;;;16.18;65.60;101118.56;5050519;28;20044;-80
2022/01/31 10:09:29;;;;;;;6.38;2.97;;;;;;;16.13;64.00;101114.13;5044203;28;20045;-80
2022/01/31 10:12:05;;;;;;;9.73;3.88;;;;;;;16.15;62.95;101105.22;5037506;28;20052;-79
2022/01/31 10:17:25;;;;;;;5.70;3.42;;;;;;;15.76;61.79;101092.84;5036834;28;20045;-79
2022/01/31 10:19:55;;;;;;;11.20;6.10;;;;;;;15.72;61.58;101090.19;5044875;28;20076;-78
2022/01/31 10:22:24;;;;;;;7.50;3.55;;;;;;;15.63;60.43;101084.84;5029540;28;20555;-79
2022/01/31 10:24:54;;;;;;;6.78;3.50;;;;;;;15.50;60.06;101081.28;5030108;28;20129;-78
2022/01/31 10:27:24;;;;;;;8.15;4.57;;;;;;;15.40;59.97;101087.47;5038743;28;20053;-78
2022/01/31 10:29:54;;;;;;;6.55;3.90;;;;;;;15.44;60.29;101084.81;5048135;28;20045;-80
2022/01/31 10:32:28;;;;;;;7.22;3.33;;;;;;;15.47;60.20;101073.31;5033644;28;20754;-77
2022/01/31 10:34:56;;;;;;;;;;;;;;;15.33;60.63;101085.69;5031059;28;20489;-79
2022/01/31 10:37:28;;;;;;;5.95;3.15;;;;;;;15.16;61.13;101075.03;5043997;28;20001;-79
2022/01/31 10:45:42;;;;;;;4.53;3.15;;;;;;;15.26;62.51;101078.59;5049062;28;20048;-78
2022/01/31 10:54:24;;;;;;;6.10;3.17;;;;;;;15.78;61.83;101069.78;5047473;28;20103;-79
2022/01/31 10:56:57;;;;;;;5.00;2.60;;;;;;;15.89;62.34;101073.31;5065716;28;20045;-79
2022/01/31 10:59:26;;;;;;;6.15;4.28;;;;;;;15.91;61.80;101076.88;5050970;28;20085;-79
2022/01/31 11:01:56;;;;;;;7.80;3.65;;;;;;;15.90;61.32;101067.09;5049391;28;20127;-79
2022/01/31 11:04:30;;;;;;;10.07;4.10;;;;;;;16.14;61.54;101068.84;5048813;28;20049;-79
2022/01/31 11:07:01;;;;;;;7.65;3.55;;;;;;;16.11;61.69;101066.19;5051383;28;20101;-79
2022/01/31 11:09:31;;;;;;;6.43;3.50;;;;;;;16.05;61.25;101059.97;5051838;28;20048;-77
2022/01/31 11:11:59;;;;;;;7.05;3.85;;;;;;;16.06;61.05;101038.69;5052290;28;20132;-79
2022/01/31 11:14:28;;;;;;;7.30;3.10;;;;;;;16.36;61.28;101045.69;5032644;28;20055;-79
2022/01/31 11:16:56;;;;;;;6.05;3.22;;;;;;;16.46;60.49;101039.44;5034875;28;20468;-80
2022/01/31 11:19:31;;;;;;;7.43;3.88;;;;;;;16.41;60.03;101030.56;5053125;28;20067;-81
2022/01/31 11:22:04;;;;;;;5.50;2.70;;;;;;;16.35;60.32;101034.13;5052532;28;20094;-82
2022/01/31 11:24:37;;;;;;;6.63;3.33;;;;;;;16.28;60.48;101031.50;5053240;28;20045;-81
2022/01/31 11:27:10;;;;;;;9.00;4.10;;;;;;;16.23;60.20;101033.28;5051876;28;20048;-80
2022/01/31 11:29:41;;;;;;;4.18;2.67;;;;;;;16.18;60.79;101027.97;5041348;28;20048;-80
2022/01/31 11:32:10;;;;;;;7.93;2.85;;;;;;;16.17;61.15;101020.88;5051857;28;20071;-82
2022/01/31 11:34:43;;;;;;;6.90;3.40;;;;;;;16.07;60.68;101023.59;5051808;28;20048;-82
2022/01/31 11:37:13;;;;;;;4.78;2.28;;;;;;;15.87;60.46;101011.22;5050519;28;20041;-82
2022/01/31 11:39:44;;;;;;;5.18;2.92;;;;;;;15.65;60.34;101009.47;5052324;28;20488;-82
2022/01/31 11:42:12;;;;;;;4.40;2.42;;;;;;;15.64;60.63;101013.00;5051786;28;20060;-84
2022/01/31 11:44:45;;;;;;;4.78;3.00;;;;;;;15.66;60.68;101007.69;5052166;28;20120;-83
2022/01/31 11:47:13;;;;;;;7.90;3.05;;;;;;;15.64;60.88;101013.00;5053377;28;20052;-84
2022/01/31 11:49:48;;;;;;;5.78;3.05;;;;;;;15.81;61.29;101013.88;5052114;28;20048;-86